sensor_id;sensor_type;location;lat;lon;timestamp;temperature;humidity
53880;DHT22;39791;53.184;5.486;2023-06-22T00:01:53;19.40;99.90
53880;DHT22;39791;53.184;5.486;2023-06-22T00:04:19;19.30;99.90
53880;DHT22;39791;53.184;5.486;2023-06-22T00:06:45;19.70;99.90
53880;DHT22;39791;53.184;5.486;2023-06-22T00:09:10;18.90;99.90
53880;DHT22;39791;53.184;5.486;2023-06-22T00:11:36;18.90;99.90
53880;DHT22;39791;53.184;5.486;2023-06-22T00:14:03;19.30;99.90
53880;DHT22;39791;53.184;5.486;2023-06-22T00:16:28;18.90;99.90
53880;DHT22;39791;53.184;5.486;2023-06-22T00:18:54;19.30;99.90
53880;DHT22;39791;53.184;5.486;2023-06-22T00:21:19;18.60;99.90
53880;DHT22;39791;53.184;5.486;2023-06-22T00:23:46;18.60;99.90
53880;DHT22;39791;53.184;5.486;2023-06-22T00:26:13;19.30;99.90
53880;DHT22;39791;53.184;5.486;2023-06-22T00:28:38;19.10;99.90
53880;DHT22;39791;53.184;5.486;2023-06-22T00:31:04;18.70;99.90
53880;DHT22;39791;53.184;5.486;2023-06-22T00:33:30;19.50;99.90
53880;DHT22;39791;53.184;5.486;2023-06-22T00:35:56;19.10;99.90
53880;DHT22;39791;53.184;5.486;2023-06-22T00:38:22;19.50;99.90
53880;DHT22;39791;53.184;5.486;2023-06-22T00:40:47;19.10;99.90
53880;DHT22;39791;53.184;5.486;2023-06-22T00:43:13;19.30;99.90
53880;DHT22;39791;53.184;5.486;2023-06-22T00:45:39;18.90;99.90
53880;DHT22;39791;53.184;5.486;2023-06-22T00:48:05;18.70;99.90
53880;DHT22;39791;53.184;5.486;2023-06-22T00:50:32;18.90;99.90
53880;DHT22;39791;53.184;5.486;2023-06-22T00:53:06;18.40;99.90
53880;DHT22;39791;53.184;5.486;2023-06-22T00:55:44;18.60;99.90
53880;DHT22;39791;53.184;5.486;2023-06-22T00:58:11;18.50;99.90
53880;DHT22;39791;53.184;5.486;2023-06-22T01:00:38;18.40;99.90
53880;DHT22;39791;53.184;5.486;2023-06-22T01:03:04;18.40;99.90
53880;DHT22;39791;53.184;5.486;2023-06-22T01:05:31;18.90;99.90
53880;DHT22;39791;53.184;5.486;2023-06-22T01:08:00;18.40;99.90
53880;DHT22;39791;53.184;5.486;2023-06-22T01:13:25;18.40;99.90
53880;DHT22;39791;53.184;5.486;2023-06-22T01:18:49;18.30;99.90
53880;DHT22;39791;53.184;5.486;2023-06-22T01:21:17;19.10;99.90
53880;DHT22;39791;53.184;5.486;2023-06-22T01:26:50;18.20;99.90
53880;DHT22;39791;53.184;5.486;2023-06-22T01:29:21;18.60;99.90
53880;DHT22;39791;53.184;5.486;2023-06-22T01:31:48;19.30;99.90
53880;DHT22;39791;53.184;5.486;2023-06-22T01:34:16;19.10;99.90
53880;DHT22;39791;53.184;5.486;2023-06-22T01:36:43;18.40;99.90
53880;DHT22;39791;53.184;5.486;2023-06-22T01:39:09;18.60;99.90
53880;DHT22;39791;53.184;5.486;2023-06-22T01:41:37;19.40;99.90
53880;DHT22;39791;53.184;5.486;2023-06-22T01:44:05;19.10;99.90
53880;DHT22;39791;53.184;5.486;2023-06-22T01:46:34;18.40;99.90
53880;DHT22;39791;53.184;5.486;2023-06-22T01:49:00;19.40;99.90
53880;DHT22;39791;53.184;5.486;2023-06-22T01:51:26;18.70;99.90
53880;DHT22;39791;53.184;5.486;2023-06-22T01:53:52;19.60;99.90
53880;DHT22;39791;53.184;5.486;2023-06-22T01:56:17;18.60;99.90
53880;DHT22;39791;53.184;5.486;2023-06-22T02:01:44;18.60;99.90
53880;DHT22;39791;53.184;5.486;2023-06-22T02:04:20;19.30;99.90
53880;DHT22;39791;53.184;5.486;2023-06-22T02:06:51;18.80;99.90
53880;DHT22;39791;53.184;5.486;2023-06-22T02:09:19;18.60;99.90
53880;DHT22;39791;53.184;5.486;2023-06-22T02:11:46;19.10;99.90
53880;DHT22;39791;53.184;5.486;2023-06-22T02:14:13;19.70;99.90
53880;DHT22;39791;53.184;5.486;2023-06-22T02:16:40;18.60;99.90
53880;DHT22;39791;53.184;5.486;2023-06-22T02:19:07;19.90;99.90
53880;DHT22;39791;53.184;5.486;2023-06-22T02:21:33;19.80;99.90
53880;DHT22;39791;53.184;5.486;2023-06-22T02:23:59;18.70;99.90
53880;DHT22;39791;53.184;5.486;2023-06-22T02:26:25;19.20;99.90
53880;DHT22;39791;53.184;5.486;2023-06-22T02:28:51;19.70;99.90
53880;DHT22;39791;53.184;5.486;2023-06-22T02:31:18;18.50;99.90
53880;DHT22;39791;53.184;5.486;2023-06-22T02:33:44;19.80;99.90
53880;DHT22;39791;53.184;5.486;2023-06-22T02:36:10;19.40;99.90
53880;DHT22;39791;53.184;5.486;2023-06-22T02:38:40;19.70;99.90
53880;DHT22;39791;53.184;5.486;2023-06-22T02:41:14;19.60;99.90
53880;DHT22;39791;53.184;5.486;2023-06-22T02:43:46;19.70;99.90
53880;DHT22;39791;53.184;5.486;2023-06-22T02:46:13;18.40;99.90
53880;DHT22;39791;53.184;5.486;2023-06-22T02:48:42;19.60;99.90
53880;DHT22;39791;53.184;5.486;2023-06-22T02:51:07;18.40;99.90
53880;DHT22;39791;53.184;5.486;2023-06-22T02:53:33;18.50;99.90
53880;DHT22;39791;53.184;5.486;2023-06-22T02:56:00;19.50;99.90
53880;DHT22;39791;53.184;5.486;2023-06-22T02:58:26;19.70;99.90
53880;DHT22;39791;53.184;5.486;2023-06-22T03:00:52;18.50;99.90
53880;DHT22;39791;53.184;5.486;2023-06-22T03:03:19;19.70;99.90
53880;DHT22;39791;53.184;5.486;2023-06-22T03:05:44;18.50;99.90
53880;DHT22;39791;53.184;5.486;2023-06-22T03:08:10;19.70;99.90
53880;DHT22;39791;53.184;5.486;2023-06-22T03:10:36;19.00;99.90
53880;DHT22;39791;53.184;5.486;2023-06-22T03:13:01;19.70;99.90
53880;DHT22;39791;53.184;5.486;2023-06-22T03:15:27;18.70;99.90
53880;DHT22;39791;53.184;5.486;2023-06-22T03:17:55;18.90;99.90
53880;DHT22;39791;53.184;5.486;2023-06-22T03:20:20;18.70;99.90
53880;DHT22;39791;53.184;5.486;2023-06-22T03:22:46;18.60;99.90
53880;DHT22;39791;53.184;5.486;2023-06-22T03:25:13;18.40;99.90
53880;DHT22;39791;53.184;5.486;2023-06-22T03:27:40;19.70;99.90
53880;DHT22;39791;53.184;5.486;2023-06-22T03:30:08;19.90;99.90
53880;DHT22;39791;53.184;5.486;2023-06-22T03:32:34;18.90;99.90
53880;DHT22;39791;53.184;5.486;2023-06-22T03:34:59;19.10;99.90
53880;DHT22;39791;53.184;5.486;2023-06-22T03:37:26;19.10;99.90
53880;DHT22;39791;53.184;5.486;2023-06-22T03:39:52;19.70;99.90
53880;DHT22;39791;53.184;5.486;2023-06-22T03:42:18;18.50;99.90
53880;DHT22;39791;53.184;5.486;2023-06-22T03:44:44;18.50;99.90
53880;DHT22;39791;53.184;5.486;2023-06-22T03:47:09;19.00;99.90
53880;DHT22;39791;53.184;5.486;2023-06-22T03:49:35;19.70;99.90
53880;DHT22;39791;53.184;5.486;2023-06-22T03:52:02;19.30;99.90
53880;DHT22;39791;53.184;5.486;2023-06-22T03:54:29;19.40;99.90
53880;DHT22;39791;53.184;5.486;2023-06-22T03:56:55;18.50;99.90
53880;DHT22;39791;53.184;5.486;2023-06-22T03:59:21;18.60;99.90
53880;DHT22;39791;53.184;5.486;2023-06-22T04:01:47;19.40;99.90
53880;DHT22;39791;53.184;5.486;2023-06-22T04:04:12;18.90;99.90
53880;DHT22;39791;53.184;5.486;2023-06-22T04:06:38;18.50;99.90
53880;DHT22;39791;53.184;5.486;2023-06-22T04:09:05;19.80;99.90
53880;DHT22;39791;53.184;5.486;2023-06-22T04:11:30;18.80;99.90
53880;DHT22;39791;53.184;5.486;2023-06-22T04:13:56;18.50;99.90
53880;DHT22;39791;53.184;5.486;2023-06-22T04:16:21;19.90;99.90
53880;DHT22;39791;53.184;5.486;2023-06-22T04:18:47;18.60;99.90
53880;DHT22;39791;53.184;5.486;2023-06-22T04:21:13;18.60;99.90
53880;DHT22;39791;53.184;5.486;2023-06-22T04:23:39;20.10;99.90
53880;DHT22;39791;53.184;5.486;2023-06-22T04:26:04;19.70;99.90
53880;DHT22;39791;53.184;5.486;2023-06-22T04:28:30;19.10;99.90
53880;DHT22;39791;53.184;5.486;2023-06-22T04:31:01;18.80;99.90
53880;DHT22;39791;53.184;5.486;2023-06-22T04:33:27;18.70;99.90
53880;DHT22;39791;53.184;5.486;2023-06-22T04:35:54;18.60;99.90
53880;DHT22;39791;53.184;5.486;2023-06-22T04:38:22;18.50;99.90
53880;DHT22;39791;53.184;5.486;2023-06-22T04:40:48;18.50;99.90
53880;DHT22;39791;53.184;5.486;2023-06-22T04:43:13;19.60;99.90
53880;DHT22;39791;53.184;5.486;2023-06-22T04:45:39;19.50;99.90
53880;DHT22;39791;53.184;5.486;2023-06-22T04:48:05;19.90;99.90
53880;DHT22;39791;53.184;5.486;2023-06-22T04:50:31;18.60;99.90
53880;DHT22;39791;53.184;5.486;2023-06-22T04:52:56;18.90;99.90
53880;DHT22;39791;53.184;5.486;2023-06-22T04:55:24;18.80;99.90
53880;DHT22;39791;53.184;5.486;2023-06-22T04:57:51;20.10;99.90
53880;DHT22;39791;53.184;5.486;2023-06-22T05:00:26;19.70;99.90
53880;DHT22;39791;53.184;5.486;2023-06-22T05:02:52;20.00;99.90
53880;DHT22;39791;53.184;5.486;2023-06-22T05:05:17;19.50;99.90
53880;DHT22;39791;53.184;5.486;2023-06-22T05:07:44;18.90;99.90
53880;DHT22;39791;53.184;5.486;2023-06-22T05:10:11;20.40;99.90
53880;DHT22;39791;53.184;5.486;2023-06-22T05:12:38;19.30;99.90
53880;DHT22;39791;53.184;5.486;2023-06-22T05:15:05;19.10;99.90
53880;DHT22;39791;53.184;5.486;2023-06-22T05:17:33;20.40;99.90
53880;DHT22;39791;53.184;5.486;2023-06-22T05:19:59;19.90;99.90
53880;DHT22;39791;53.184;5.486;2023-06-22T05:22:25;20.60;99.90
53880;DHT22;39791;53.184;5.486;2023-06-22T05:24:50;20.10;99.90
53880;DHT22;39791;53.184;5.486;2023-06-22T05:27:16;20.40;99.90
53880;DHT22;39791;53.184;5.486;2023-06-22T05:29:41;19.30;99.90
53880;DHT22;39791;53.184;5.486;2023-06-22T05:32:10;19.50;99.90
53880;DHT22;39791;53.184;5.486;2023-06-22T05:34:36;19.70;99.90
53880;DHT22;39791;53.184;5.486;2023-06-22T05:37:02;19.60;99.90
53880;DHT22;39791;53.184;5.486;2023-06-22T05:39:28;19.80;99.90
53880;DHT22;39791;53.184;5.486;2023-06-22T05:41:53;20.30;99.90
53880;DHT22;39791;53.184;5.486;2023-06-22T05:44:19;20.00;99.90
53880;DHT22;39791;53.184;5.486;2023-06-22T05:46:45;19.60;99.90
53880;DHT22;39791;53.184;5.486;2023-06-22T05:49:12;19.70;99.90
53880;DHT22;39791;53.184;5.486;2023-06-22T05:51:38;19.70;99.90
53880;DHT22;39791;53.184;5.486;2023-06-22T05:54:04;21.10;99.90
53880;DHT22;39791;53.184;5.486;2023-06-22T05:56:29;20.70;99.90
53880;DHT22;39791;53.184;5.486;2023-06-22T05:58:55;20.60;99.90
53880;DHT22;39791;53.184;5.486;2023-06-22T06:01:20;21.00;99.90
53880;DHT22;39791;53.184;5.486;2023-06-22T06:03:46;21.00;99.90
53880;DHT22;39791;53.184;5.486;2023-06-22T06:06:12;20.20;99.90
53880;DHT22;39791;53.184;5.486;2023-06-22T06:08:39;21.30;99.90
53880;DHT22;39791;53.184;5.486;2023-06-22T06:11:04;21.10;99.90
53880;DHT22;39791;53.184;5.486;2023-06-22T06:13:30;21.30;99.90
53880;DHT22;39791;53.184;5.486;2023-06-22T06:15:56;21.10;99.90
53880;DHT22;39791;53.184;5.486;2023-06-22T06:18:22;21.60;99.90
53880;DHT22;39791;53.184;5.486;2023-06-22T06:20:48;21.70;99.90
53880;DHT22;39791;53.184;5.486;2023-06-22T06:23:14;21.60;99.90
53880;DHT22;39791;53.184;5.486;2023-06-22T06:25:39;21.00;99.90
53880;DHT22;39791;53.184;5.486;2023-06-22T06:28:05;21.20;99.90
53880;DHT22;39791;53.184;5.486;2023-06-22T06:30:31;21.30;99.90
53880;DHT22;39791;53.184;5.486;2023-06-22T06:32:56;21.70;99.90
53880;DHT22;39791;53.184;5.486;2023-06-22T06:35:22;21.60;99.90
53880;DHT22;39791;53.184;5.486;2023-06-22T06:37:49;20.80;99.90
53880;DHT22;39791;53.184;5.486;2023-06-22T06:40:16;22.00;99.90
53880;DHT22;39791;53.184;5.486;2023-06-22T06:42:47;21.70;99.90
53880;DHT22;39791;53.184;5.486;2023-06-22T06:45:17;21.90;99.90
53880;DHT22;39791;53.184;5.486;2023-06-22T06:47:43;21.70;99.90
53880;DHT22;39791;53.184;5.486;2023-06-22T06:50:10;22.00;99.90
53880;DHT22;39791;53.184;5.486;2023-06-22T06:52:36;22.30;99.90
53880;DHT22;39791;53.184;5.486;2023-06-22T06:55:01;22.10;99.90
53880;DHT22;39791;53.184;5.486;2023-06-22T06:57:29;22.50;99.90
53880;DHT22;39791;53.184;5.486;2023-06-22T06:59:58;22.50;99.90
53880;DHT22;39791;53.184;5.486;2023-06-22T07:02:25;22.80;99.90
53880;DHT22;39791;53.184;5.486;2023-06-22T07:04:51;22.80;99.90
53880;DHT22;39791;53.184;5.486;2023-06-22T07:07:16;22.70;99.90
53880;DHT22;39791;53.184;5.486;2023-06-22T07:09:42;23.10;99.90
53880;DHT22;39791;53.184;5.486;2023-06-22T07:12:08;23.00;99.90
53880;DHT22;39791;53.184;5.486;2023-06-22T07:14:34;23.10;99.90
53880;DHT22;39791;53.184;5.486;2023-06-22T07:16:59;23.50;99.90
53880;DHT22;39791;53.184;5.486;2023-06-22T07:19:25;23.70;99.90
53880;DHT22;39791;53.184;5.486;2023-06-22T07:21:52;23.80;99.90
53880;DHT22;39791;53.184;5.486;2023-06-22T07:24:19;23.60;99.90
53880;DHT22;39791;53.184;5.486;2023-06-22T07:26:46;23.80;99.90
53880;DHT22;39791;53.184;5.486;2023-06-22T07:29:13;24.10;91.80
53880;DHT22;39791;53.184;5.486;2023-06-22T07:31:39;24.20;1.00
53880;DHT22;39791;53.184;5.486;2023-06-22T07:34:06;24.30;99.90
53880;DHT22;39791;53.184;5.486;2023-06-22T07:36:32;24.30;99.90
53880;DHT22;39791;53.184;5.486;2023-06-22T07:38:57;24.40;99.90
53880;DHT22;39791;53.184;5.486;2023-06-22T07:41:23;24.50;99.90
53880;DHT22;39791;53.184;5.486;2023-06-22T07:43:49;24.70;99.90
53880;DHT22;39791;53.184;5.486;2023-06-22T07:46:15;24.90;1.00
53880;DHT22;39791;53.184;5.486;2023-06-22T07:48:41;25.10;98.00
53880;DHT22;39791;53.184;5.486;2023-06-22T07:51:07;25.20;1.00
53880;DHT22;39791;53.184;5.486;2023-06-22T07:53:33;25.30;99.90
53880;DHT22;39791;53.184;5.486;2023-06-22T07:55:58;25.40;55.20
53880;DHT22;39791;53.184;5.486;2023-06-22T07:58:24;25.40;1.00
53880;DHT22;39791;53.184;5.486;2023-06-22T08:00:49;25.40;99.90
53880;DHT22;39791;53.184;5.486;2023-06-22T08:03:15;25.60;99.90
53880;DHT22;39791;53.184;5.486;2023-06-22T08:05:41;25.60;99.90
53880;DHT22;39791;53.184;5.486;2023-06-22T08:08:06;25.60;99.90
53880;DHT22;39791;53.184;5.486;2023-06-22T08:10:32;25.60;55.80
53880;DHT22;39791;53.184;5.486;2023-06-22T08:12:57;25.60;1.00
53880;DHT22;39791;53.184;5.486;2023-06-22T08:15:25;25.60;1.00
53880;DHT22;39791;53.184;5.486;2023-06-22T08:17:51;25.80;1.00
53880;DHT22;39791;53.184;5.486;2023-06-22T08:20:17;26.00;1.00
53880;DHT22;39791;53.184;5.486;2023-06-22T08:22:44;26.10;99.90
53880;DHT22;39791;53.184;5.486;2023-06-22T08:25:10;26.10;99.90
53880;DHT22;39791;53.184;5.486;2023-06-22T08:27:36;26.00;99.90
53880;DHT22;39791;53.184;5.486;2023-06-22T08:30:02;26.00;99.90
53880;DHT22;39791;53.184;5.486;2023-06-22T08:32:28;26.00;99.90
53880;DHT22;39791;53.184;5.486;2023-06-22T08:34:55;26.30;99.90
53880;DHT22;39791;53.184;5.486;2023-06-22T08:37:21;26.00;99.90
53880;DHT22;39791;53.184;5.486;2023-06-22T08:39:49;26.00;99.90
53880;DHT22;39791;53.184;5.486;2023-06-22T08:42:15;26.30;99.90
53880;DHT22;39791;53.184;5.486;2023-06-22T08:44:41;26.30;99.90
53880;DHT22;39791;53.184;5.486;2023-06-22T08:47:07;26.40;99.90
53880;DHT22;39791;53.184;5.486;2023-06-22T08:49:32;26.40;99.90
53880;DHT22;39791;53.184;5.486;2023-06-22T08:51:58;26.30;99.90
53880;DHT22;39791;53.184;5.486;2023-06-22T08:54:23;26.40;99.90
53880;DHT22;39791;53.184;5.486;2023-06-22T08:56:49;26.50;99.90
53880;DHT22;39791;53.184;5.486;2023-06-22T08:59:14;26.70;99.90
53880;DHT22;39791;53.184;5.486;2023-06-22T09:01:40;26.80;99.90
53880;DHT22;39791;53.184;5.486;2023-06-22T09:04:06;27.10;99.90
53880;DHT22;39791;53.184;5.486;2023-06-22T09:06:34;27.20;99.90
53880;DHT22;39791;53.184;5.486;2023-06-22T09:09:00;27.30;65.10
53880;DHT22;39791;53.184;5.486;2023-06-22T09:11:25;27.20;52.20
53880;DHT22;39791;53.184;5.486;2023-06-22T09:13:51;27.20;48.20
53880;DHT22;39791;53.184;5.486;2023-06-22T09:16:18;27.20;29.40
53880;DHT22;39791;53.184;5.486;2023-06-22T09:18:47;27.30;36.70
53880;DHT22;39791;53.184;5.486;2023-06-22T09:21:13;27.70;43.20
53880;DHT22;39791;53.184;5.486;2023-06-22T09:23:38;27.80;20.50
53880;DHT22;39791;53.184;5.486;2023-06-22T09:26:04;27.80;1.00
53880;DHT22;39791;53.184;5.486;2023-06-22T09:28:30;27.80;1.00
53880;DHT22;39791;53.184;5.486;2023-06-22T09:30:56;27.70;1.00
53880;DHT22;39791;53.184;5.486;2023-06-22T09:33:25;27.80;1.00
53880;DHT22;39791;53.184;5.486;2023-06-22T09:35:51;28.00;1.00
53880;DHT22;39791;53.184;5.486;2023-06-22T09:38:17;28.00;1.00
53880;DHT22;39791;53.184;5.486;2023-06-22T09:40:42;27.90;1.00
53880;DHT22;39791;53.184;5.486;2023-06-22T09:43:08;27.80;1.00
53880;DHT22;39791;53.184;5.486;2023-06-22T09:45:34;27.90;1.00
53880;DHT22;39791;53.184;5.486;2023-06-22T09:48:00;27.90;1.00
53880;DHT22;39791;53.184;5.486;2023-06-22T09:50:25;27.90;1.00
53880;DHT22;39791;53.184;5.486;2023-06-22T09:52:51;27.80;1.00
53880;DHT22;39791;53.184;5.486;2023-06-22T09:55:20;27.50;1.00
53880;DHT22;39791;53.184;5.486;2023-06-22T09:57:46;27.50;1.00
53880;DHT22;39791;53.184;5.486;2023-06-22T10:00:12;27.50;1.00
53880;DHT22;39791;53.184;5.486;2023-06-22T10:02:39;27.50;1.00
53880;DHT22;39791;53.184;5.486;2023-06-22T10:05:05;27.70;1.00
53880;DHT22;39791;53.184;5.486;2023-06-22T10:07:31;27.60;1.00
53880;DHT22;39791;53.184;5.486;2023-06-22T10:09:56;27.80;1.00
53880;DHT22;39791;53.184;5.486;2023-06-22T10:12:22;27.60;1.00
53880;DHT22;39791;53.184;5.486;2023-06-22T10:14:47;27.70;1.00
53880;DHT22;39791;53.184;5.486;2023-06-22T10:17:13;27.70;1.00
53880;DHT22;39791;53.184;5.486;2023-06-22T10:19:38;27.80;1.00
53880;DHT22;39791;53.184;5.486;2023-06-22T10:22:06;27.90;1.00
53880;DHT22;39791;53.184;5.486;2023-06-22T10:24:32;27.90;1.00
53880;DHT22;39791;53.184;5.486;2023-06-22T10:26:57;27.90;1.00
53880;DHT22;39791;53.184;5.486;2023-06-22T10:29:23;27.90;1.00
53880;DHT22;39791;53.184;5.486;2023-06-22T10:31:49;27.80;1.00
53880;DHT22;39791;53.184;5.486;2023-06-22T10:34:14;27.60;1.00
53880;DHT22;39791;53.184;5.486;2023-06-22T10:36:40;27.60;1.00
53880;DHT22;39791;53.184;5.486;2023-06-22T10:39:05;27.60;1.00
53880;DHT22;39791;53.184;5.486;2023-06-22T10:41:31;27.50;1.00
53880;DHT22;39791;53.184;5.486;2023-06-22T10:43:57;27.40;1.00
53880;DHT22;39791;53.184;5.486;2023-06-22T10:46:24;27.30;1.00
53880;DHT22;39791;53.184;5.486;2023-06-22T10:48:52;27.30;1.00
53880;DHT22;39791;53.184;5.486;2023-06-22T10:51:19;27.30;1.00
53880;DHT22;39791;53.184;5.486;2023-06-22T10:53:45;27.30;1.00
53880;DHT22;39791;53.184;5.486;2023-06-22T10:56:11;27.40;1.00
53880;DHT22;39791;53.184;5.486;2023-06-22T10:58:36;27.20;1.00
53880;DHT22;39791;53.184;5.486;2023-06-22T11:01:02;27.00;1.00
53880;DHT22;39791;53.184;5.486;2023-06-22T11:03:28;26.90;1.00
53880;DHT22;39791;53.184;5.486;2023-06-22T11:05:54;26.80;1.00
53880;DHT22;39791;53.184;5.486;2023-06-22T11:08:20;26.90;1.00
53880;DHT22;39791;53.184;5.486;2023-06-22T11:10:45;26.90;1.00
53880;DHT22;39791;53.184;5.486;2023-06-22T11:13:11;27.00;1.00
53880;DHT22;39791;53.184;5.486;2023-06-22T11:15:36;26.70;1.00
53880;DHT22;39791;53.184;5.486;2023-06-22T11:18:02;26.50;1.00
53880;DHT22;39791;53.184;5.486;2023-06-22T11:20:30;26.30;1.00
53880;DHT22;39791;53.184;5.486;2023-06-22T11:22:56;26.20;1.00
53880;DHT22;39791;53.184;5.486;2023-06-22T11:25:21;26.10;1.00
53880;DHT22;39791;53.184;5.486;2023-06-22T11:27:47;26.10;1.00
53880;DHT22;39791;53.184;5.486;2023-06-22T11:30:13;26.00;1.00
53880;DHT22;39791;53.184;5.486;2023-06-22T11:32:38;25.90;1.00
53880;DHT22;39791;53.184;5.486;2023-06-22T11:35:04;25.80;1.00
53880;DHT22;39791;53.184;5.486;2023-06-22T11:37:30;25.80;1.00
53880;DHT22;39791;53.184;5.486;2023-06-22T11:39:55;25.80;1.00
53880;DHT22;39791;53.184;5.486;2023-06-22T11:42:21;25.70;1.00
53880;DHT22;39791;53.184;5.486;2023-06-22T11:44:49;25.70;1.00
53880;DHT22;39791;53.184;5.486;2023-06-22T11:47:14;25.70;1.00
53880;DHT22;39791;53.184;5.486;2023-06-22T11:49:41;25.70;1.00
53880;DHT22;39791;53.184;5.486;2023-06-22T11:52:06;25.80;1.00
53880;DHT22;39791;53.184;5.486;2023-06-22T11:54:32;25.80;1.00
53880;DHT22;39791;53.184;5.486;2023-06-22T11:56:57;26.00;1.00
53880;DHT22;39791;53.184;5.486;2023-06-22T11:59:23;25.80;1.00
53880;DHT22;39791;53.184;5.486;2023-06-22T12:01:49;26.00;1.00
53880;DHT22;39791;53.184;5.486;2023-06-22T12:04:16;25.70;1.00
53880;DHT22;39791;53.184;5.486;2023-06-22T12:06:42;25.80;1.00
53880;DHT22;39791;53.184;5.486;2023-06-22T12:09:09;25.70;1.00
53880;DHT22;39791;53.184;5.486;2023-06-22T12:11:35;25.70;1.00
53880;DHT22;39791;53.184;5.486;2023-06-22T12:14:00;25.50;1.00
53880;DHT22;39791;53.184;5.486;2023-06-22T12:16:28;25.70;1.00
53880;DHT22;39791;53.184;5.486;2023-06-22T12:18:53;25.70;1.00
53880;DHT22;39791;53.184;5.486;2023-06-22T12:21:19;25.70;1.00
53880;DHT22;39791;53.184;5.486;2023-06-22T12:23:44;25.80;1.00
53880;DHT22;39791;53.184;5.486;2023-06-22T12:26:10;25.80;1.00
53880;DHT22;39791;53.184;5.486;2023-06-22T12:28:36;25.80;1.00
53880;DHT22;39791;53.184;5.486;2023-06-22T12:31:01;25.90;1.00
53880;DHT22;39791;53.184;5.486;2023-06-22T12:33:27;25.70;1.00
53880;DHT22;39791;53.184;5.486;2023-06-22T12:35:52;25.60;1.00
53880;DHT22;39791;53.184;5.486;2023-06-22T12:38:18;25.50;1.00
53880;DHT22;39791;53.184;5.486;2023-06-22T12:40:43;25.40;1.00
53880;DHT22;39791;53.184;5.486;2023-06-22T12:43:09;25.40;1.00
53880;DHT22;39791;53.184;5.486;2023-06-22T12:45:35;25.40;1.00
53880;DHT22;39791;53.184;5.486;2023-06-22T12:48:00;25.30;1.00
53880;DHT22;39791;53.184;5.486;2023-06-22T12:50:26;25.30;1.00
53880;DHT22;39791;53.184;5.486;2023-06-22T12:52:52;25.30;1.00
53880;DHT22;39791;53.184;5.486;2023-06-22T12:55:17;25.30;1.00
53880;DHT22;39791;53.184;5.486;2023-06-22T12:57:43;25.20;1.00
53880;DHT22;39791;53.184;5.486;2023-06-22T13:00:09;25.60;1.00
53880;DHT22;39791;53.184;5.486;2023-06-22T13:02:35;25.10;1.00
53880;DHT22;39791;53.184;5.486;2023-06-22T13:05:02;25.00;1.00
53880;DHT22;39791;53.184;5.486;2023-06-22T13:07:27;25.00;1.00
53880;DHT22;39791;53.184;5.486;2023-06-22T13:09:53;24.90;1.00
53880;DHT22;39791;53.184;5.486;2023-06-22T13:12:20;24.80;1.00
53880;DHT22;39791;53.184;5.486;2023-06-22T13:14:46;24.70;1.00
53880;DHT22;39791;53.184;5.486;2023-06-22T13:17:12;24.70;1.00
53880;DHT22;39791;53.184;5.486;2023-06-22T13:19:39;24.50;1.00
53880;DHT22;39791;53.184;5.486;2023-06-22T13:22:05;24.70;1.00
53880;DHT22;39791;53.184;5.486;2023-06-22T13:24:30;24.50;1.00
53880;DHT22;39791;53.184;5.486;2023-06-22T13:26:56;24.40;1.00
53880;DHT22;39791;53.184;5.486;2023-06-22T13:29:21;24.40;1.00
53880;DHT22;39791;53.184;5.486;2023-06-22T13:31:47;24.30;1.00
53880;DHT22;39791;53.184;5.486;2023-06-22T13:34:13;24.30;1.00
53880;DHT22;39791;53.184;5.486;2023-06-22T13:36:38;24.20;1.00
53880;DHT22;39791;53.184;5.486;2023-06-22T13:39:04;24.10;1.00
53880;DHT22;39791;53.184;5.486;2023-06-22T13:41:29;24.00;1.00
53880;DHT22;39791;53.184;5.486;2023-06-22T13:43:55;23.90;1.00
53880;DHT22;39791;53.184;5.486;2023-06-22T13:46:20;23.90;1.00
53880;DHT22;39791;53.184;5.486;2023-06-22T13:48:46;23.90;1.00
53880;DHT22;39791;53.184;5.486;2023-06-22T13:51:12;23.80;1.00
53880;DHT22;39791;53.184;5.486;2023-06-22T13:53:37;23.80;1.00
53880;DHT22;39791;53.184;5.486;2023-06-22T13:56:03;23.80;1.00
53880;DHT22;39791;53.184;5.486;2023-06-22T13:58:29;23.80;1.00
53880;DHT22;39791;53.184;5.486;2023-06-22T14:00:54;23.70;1.00
53880;DHT22;39791;53.184;5.486;2023-06-22T14:03:20;23.70;1.00
53880;DHT22;39791;53.184;5.486;2023-06-22T14:05:45;23.70;1.00
53880;DHT22;39791;53.184;5.486;2023-06-22T14:08:12;23.70;1.00
53880;DHT22;39791;53.184;5.486;2023-06-22T14:10:37;23.60;1.00
53880;DHT22;39791;53.184;5.486;2023-06-22T14:13:03;23.60;1.00
53880;DHT22;39791;53.184;5.486;2023-06-22T14:15:31;23.50;1.00
53880;DHT22;39791;53.184;5.486;2023-06-22T14:17:57;23.40;1.00
53880;DHT22;39791;53.184;5.486;2023-06-22T14:20:22;23.60;1.00
53880;DHT22;39791;53.184;5.486;2023-06-22T14:22:48;23.40;1.00
53880;DHT22;39791;53.184;5.486;2023-06-22T14:25:14;23.30;1.00
53880;DHT22;39791;53.184;5.486;2023-06-22T14:27:39;23.30;1.00
53880;DHT22;39791;53.184;5.486;2023-06-22T14:30:05;23.20;1.00
53880;DHT22;39791;53.184;5.486;2023-06-22T14:32:31;23.20;1.00
53880;DHT22;39791;53.184;5.486;2023-06-22T14:34:57;23.20;1.00
53880;DHT22;39791;53.184;5.486;2023-06-22T14:37:22;23.20;1.00
53880;DHT22;39791;53.184;5.486;2023-06-22T14:39:48;23.20;1.00
53880;DHT22;39791;53.184;5.486;2023-06-22T14:42:13;23.20;1.00
53880;DHT22;39791;53.184;5.486;2023-06-22T14:44:39;23.10;1.00
53880;DHT22;39791;53.184;5.486;2023-06-22T14:47:05;23.00;1.00
53880;DHT22;39791;53.184;5.486;2023-06-22T14:49:30;23.00;1.00
53880;DHT22;39791;53.184;5.486;2023-06-22T14:51:56;23.00;1.00
53880;DHT22;39791;53.184;5.486;2023-06-22T14:54:21;22.80;1.00
53880;DHT22;39791;53.184;5.486;2023-06-22T14:56:50;22.80;1.00
53880;DHT22;39791;53.184;5.486;2023-06-22T14:59:16;22.80;1.00
53880;DHT22;39791;53.184;5.486;2023-06-22T15:01:42;22.80;1.00
53880;DHT22;39791;53.184;5.486;2023-06-22T15:04:07;22.80;1.00
53880;DHT22;39791;53.184;5.486;2023-06-22T15:06:33;22.80;1.00
53880;DHT22;39791;53.184;5.486;2023-06-22T15:08:58;22.80;1.00
53880;DHT22;39791;53.184;5.486;2023-06-22T15:11:24;22.80;1.00
53880;DHT22;39791;53.184;5.486;2023-06-22T15:13:49;22.60;1.00
53880;DHT22;39791;53.184;5.486;2023-06-22T15:16:15;22.70;1.00
53880;DHT22;39791;53.184;5.486;2023-06-22T15:18:41;22.60;1.00
53880;DHT22;39791;53.184;5.486;2023-06-22T15:21:06;22.60;1.00
53880;DHT22;39791;53.184;5.486;2023-06-22T15:23:33;22.50;1.00
53880;DHT22;39791;53.184;5.486;2023-06-22T15:26:00;22.60;1.00
53880;DHT22;39791;53.184;5.486;2023-06-22T15:28:27;22.50;1.00
53880;DHT22;39791;53.184;5.486;2023-06-22T15:30:53;22.60;1.00
53880;DHT22;39791;53.184;5.486;2023-06-22T15:33:19;22.50;1.00
53880;DHT22;39791;53.184;5.486;2023-06-22T15:35:44;22.40;1.00
53880;DHT22;39791;53.184;5.486;2023-06-22T15:38:10;22.20;1.00
53880;DHT22;39791;53.184;5.486;2023-06-22T15:40:36;22.20;1.00
53880;DHT22;39791;53.184;5.486;2023-06-22T15:43:01;22.20;1.00